Time;durP1;ratioP1;P1;durP2;ratioP2;P2;SDS_P1;SDS_P2;PMS_P1;PMS_P2;Temp;Humidity;BMP_temperature;BMP_pressure;BME280_temperature;BME280_humidity;BME280_pressure;Samples;Min_cycle;Max_cycle;Signal;HPM_P1;HPM_P2
2022/01/11 00:00:26;;;;;;;28.00;7.50;;;27.40;75.80;;;;;;5050155;28;20017;-48
2022/01/11 00:02:55;;;;;;;23.42;6.50;;;27.30;75.10;;;;;;5046535;28;20339;-57
2022/01/11 00:05:31;;;;;;;21.83;6.28;;;27.40;75.10;;;;;;5041721;28;20325;-55
2022/01/11 00:07:58;;;;;;;17.38;5.38;;;27.40;75.00;;;;;;5066446;28;20032;-49
2022/01/11 00:10:32;;;;;;;33.65;6.13;;;27.40;74.90;;;;;;5063352;28;20028;-56
2022/01/11 00:13:00;;;;;;;30.60;6.18;;;27.40;74.90;;;;;;5061029;28;20052;-51
2022/01/11 00:15:29;;;;;;;27.33;5.45;;;27.40;74.90;;;;;;5033512;28;20025;-51
2022/01/11 00:17:57;;;;;;;22.40;5.60;;;27.40;74.80;;;;;;5045055;28;20263;-45
2022/01/11 00:20:27;;;;;;;17.90;5.43;;;27.40;74.80;;;;;;5054959;28;20202;-46
2022/01/11 00:25:37;;;;;;;28.52;5.90;;;27.40;74.40;;;;;;5056659;28;20020;-45
2022/01/11 00:28:04;;;;;;;19.45;5.70;;;27.40;74.10;;;;;;5053586;28;20285;-44
2022/01/11 00:30:35;;;;;;;25.65;5.65;;;27.40;74.00;;;;;;5053567;28;20286;-45
2022/01/11 00:33:08;;;;;;;33.25;7.00;;;27.40;73.90;;;;;;5052410;28;20040;-49
2022/01/11 00:36:17;;;;;;;31.50;6.72;;;27.40;73.90;;;;;;5045609;28;20028;-44
2022/01/11 00:38:28;;;;;;;21.35;6.13;;;27.40;73.90;;;;;;5035015;28;20333;-44
2022/01/11 00:40:57;;;;;;;19.10;5.45;;;27.40;73.90;;;;;;5045465;28;20237;-47
2022/01/11 00:43:26;;;;;;;22.00;4.60;;;27.40;73.80;;;;;;5049419;28;20100;-51
2022/01/11 00:45:54;;;;;;;25.55;6.53;;;27.40;73.80;;;;;;5063513;28;20031;-49
2022/01/11 00:48:21;;;;;;;44.15;13.05;;;27.40;74.00;;;;;;5060955;28;20183;-47
2022/01/11 00:50:49;;;;;;;34.53;11.00;;;27.40;74.10;;;;;;5053058;28;20016;-48
2022/01/11 00:53:18;;;;;;;58.10;8.15;;;27.40;74.20;;;;;;5058662;28;20330;-51
2022/01/11 00:55:47;;;;;;;30.88;7.00;;;27.40;74.30;;;;;;5054542;28;20298;-45
2022/01/11 00:58:17;;;;;;;35.42;6.88;;;27.40;74.30;;;;;;5048878;28;20206;-47
2022/01/11 01:00:44;;;;;;;23.05;7.00;;;27.40;74.40;;;;;;5045172;28;20314;-50
2022/01/11 01:03:12;;;;;;;18.63;6.70;;;27.40;74.30;;;;;;5048354;28;20301;-48
2022/01/11 01:05:39;;;;;;;30.23;7.22;;;27.30;74.10;;;;;;5054469;28;20024;-50
2022/01/11 01:08:06;;;;;;;13.07;6.03;;;27.30;74.00;;;;;;5061352;28;20032;-53
2022/01/11 01:10:39;;;;;;;21.55;5.70;;;27.30;73.60;;;;;;5060759;28;20020;-54
2022/01/11 01:13:17;;;;;;;24.00;5.75;;;27.30;73.20;;;;;;5058729;28;20028;-48
2022/01/11 01:15:47;;;;;;;52.15;6.75;;;27.30;72.60;;;;;;5042232;28;20020;-51
2022/01/11 01:18:21;;;;;;;23.48;5.35;;;27.30;72.50;;;;;;5054154;28;20036;-53
2022/01/11 01:20:49;;;;;;;14.07;4.90;;;27.30;72.50;;;;;;5052664;28;20014;-50
2022/01/11 01:23:16;;;;;;;17.60;5.05;;;27.30;72.50;;;;;;5056225;28;20037;-47
2022/01/11 01:25:45;;;;;;;19.23;4.60;;;27.30;72.30;;;;;;5057789;28;20045;-54
2022/01/11 01:28:12;;;;;;;16.25;5.13;;;27.30;72.30;;;;;;5064690;28;20024;-48
2022/01/11 01:30:41;;;;;;;13.00;5.00;;;27.30;72.00;;;;;;5061678;28;20029;-46
2022/01/11 01:33:08;;;;;;;17.70;5.93;;;27.30;72.00;;;;;;5056835;28;20028;-51
2022/01/11 01:35:39;;;;;;;13.75;6.88;;;27.30;71.90;;;;;;5050210;28;20022;-48
2022/01/11 01:38:11;;;;;;;20.92;9.05;;;27.30;71.90;;;;;;5061796;28;20025;-56
2022/01/11 01:40:43;;;;;;;38.97;12.95;;;27.30;71.70;;;;;;5062060;28;20032;-53
2022/01/11 01:43:10;;;;;;;;;;;27.30;71.70;;;;;;5065009;28;20262;-53
2022/01/11 01:45:40;;;;;;;47.13;15.20;;;27.30;71.40;;;;;;5064520;28;20196;-47
2022/01/11 01:48:07;;;;;;;34.50;10.95;;;27.30;71.50;;;;;;5063100;28;20108;-49
2022/01/11 01:50:35;;;;;;;29.42;11.00;;;27.30;71.40;;;;;;5064027;28;20266;-51
2022/01/11 01:53:03;;;;;;;17.00;7.85;;;27.30;71.20;;;;;;5063767;28;20051;-49
2022/01/11 01:55:30;;;;;;;24.88;7.93;;;27.30;71.10;;;;;;5063614;28;20047;-50
2022/01/11 01:57:57;;;;;;;22.25;6.82;;;27.30;70.80;;;;;;5063092;28;20052;-45
2022/01/11 02:00:28;;;;;;;23.23;7.18;;;27.30;70.40;;;;;;5063681;28;20059;-49
2022/01/11 02:03:09;;;;;;;14.70;6.00;;;27.30;70.50;;;;;;5061551;28;20204;-48
2022/01/11 02:05:36;;;;;;;15.70;5.35;;;27.30;70.40;;;;;;5062941;28;20092;-48
2022/01/11 02:08:05;;;;;;;18.33;6.13;;;27.30;70.50;;;;;;5064293;28;20024;-49
2022/01/11 02:10:32;;;;;;;13.32;5.07;;;27.30;70.30;;;;;;5060988;28;20041;-57
2022/01/11 02:13:00;;;;;;;21.00;5.38;;;27.30;70.20;;;;;;5064194;28;20063;-49
2022/01/11 02:15:29;;;;;;;17.48;4.47;;;27.30;70.10;;;;;;5057672;28;20050;-49
2022/01/11 02:18:07;;;;;;;12.57;5.00;;;27.20;70.10;;;;;;5052914;28;20206;-49
2022/01/11 02:20:35;;;;;;;9.80;4.35;;;27.30;70.10;;;;;;5051262;28;20033;-47
2022/01/11 02:23:01;;;;;;;11.40;4.50;;;27.20;70.10;;;;;;5052398;28;20029;-46
2022/01/11 02:25:28;;;;;;;14.20;4.60;;;27.20;70.10;;;;;;5050984;28;20017;-49
2022/01/11 02:27:55;;;;;;;11.23;3.97;;;27.20;70.10;;;;;;5055291;28;20237;-50
2022/01/11 02:30:22;;;;;;;7.15;4.13;;;27.20;70.10;;;;;;5063222;28;20025;-50
2022/01/11 02:32:50;;;;;;;6.95;4.00;;;27.20;69.90;;;;;;5056574;28;20063;-49
2022/01/11 02:35:17;;;;;;;9.55;4.93;;;27.20;70.10;;;;;;5065400;28;20032;-50
2022/01/11 02:37:45;;;;;;;11.13;5.68;;;27.20;70.00;;;;;;5067863;28;20298;-50
2022/01/11 02:40:14;;;;;;;9.63;5.32;;;27.20;70.10;;;;;;5067045;28;20368;-51
2022/01/11 02:42:42;;;;;;;12.90;5.43;;;27.20;70.00;;;;;;5068058;28;20029;-56
2022/01/11 02:45:14;;;;;;;8.38;4.95;;;27.10;69.90;;;;;;5067544;28;20092;-51
2022/01/11 02:47:41;;;;;;;10.70;4.97;;;27.20;70.00;;;;;;5068053;28;20210;-48
2022/01/11 02:50:09;;;;;;;9.45;5.00;;;27.10;69.80;;;;;;5062853;28;20032;-49
2022/01/11 02:52:36;;;;;;;8.25;4.50;;;27.10;70.00;;;;;;5060497;28;20059;-53
2022/01/11 02:55:07;;;;;;;10.48;4.15;;;27.20;70.10;;;;;;5059692;28;20019;-57
2022/01/11 02:57:33;;;;;;;11.00;4.15;;;27.20;70.50;;;;;;5061388;28;20083;-46
2022/01/11 03:00:01;;;;;;;7.22;4.30;;;27.20;69.90;;;;;;5067635;28;20017;-48
2022/01/11 03:02:27;;;;;;;6.07;3.67;;;27.20;69.80;;;;;;5066431;28;20033;-49
2022/01/11 03:04:54;;;;;;;7.05;3.90;;;27.20;69.90;;;;;;5067377;28;20214;-46
2022/01/11 03:07:22;;;;;;;9.35;4.68;;;27.20;69.90;;;;;;5067496;28;20123;-48
2022/01/11 03:10:12;;;;;;;9.73;4.70;;;27.20;70.00;;;;;;5066953;28;20194;-49
2022/01/11 03:12:40;;;;;;;10.20;4.88;;;27.20;70.00;;;;;;5060226;28;20029;-45
2022/01/11 03:15:08;;;;;;;7.65;4.70;;;27.20;70.10;;;;;;5064670;28;20178;-49
2022/01/11 03:17:35;;;;;;;7.95;4.90;;;27.20;70.10;;;;;;5062330;28;20291;-52
2022/01/11 03:20:01;;;;;;;8.75;5.03;;;27.20;70.00;;;;;;5067107;28;20043;-47
2022/01/11 03:22:28;;;;;;;9.13;4.55;;;27.20;70.00;;;;;;5067453;28;20029;-51
2022/01/11 03:24:55;;;;;;;5.25;3.92;;;27.20;69.90;;;;;;5065513;28;20339;-49
2022/01/11 03:27:21;;;;;;;8.65;3.95;;;27.20;70.00;;;;;;5065964;28;20079;-49
2022/01/11 03:29:48;;;;;;;7.20;4.10;;;27.20;70.10;;;;;;5066948;28;20024;-48
2022/01/11 03:32:18;;;;;;;5.82;3.58;;;27.20;70.00;;;;;;5066971;28;20021;-46
2022/01/11 03:34:46;;;;;;;8.40;4.45;;;27.20;70.00;;;;;;5065680;28;20115;-46
2022/01/11 03:37:16;;;;;;;6.45;3.47;;;27.20;70.00;;;;;;5067064;28;20305;-48
2022/01/11 03:39:43;;;;;;;5.15;3.70;;;27.20;69.90;;;;;;5066303;28;20048;-50
2022/01/11 03:42:12;;;;;;;5.65;3.50;;;27.20;69.90;;;;;;5059793;28;20028;-48
2022/01/11 03:44:38;;;;;;;7.93;3.70;;;27.20;69.90;;;;;;5058291;28;20021;-46
2022/01/11 03:47:06;;;;;;;7.00;3.67;;;27.20;69.90;;;;;;5062694;28;20317;-47
2022/01/11 03:49:33;;;;;;;6.78;3.53;;;27.10;69.70;;;;;;5047593;28;20326;-46
2022/01/11 03:52:00;;;;;;;12.10;3.45;;;27.10;69.80;;;;;;5066535;28;20031;-53
2022/01/11 03:54:30;;;;;;;9.63;3.30;;;27.10;69.90;;;;;;5059561;28;20092;-46
2022/01/11 03:56:57;;;;;;;8.40;3.50;;;27.10;70.20;;;;;;5064370;28;20366;-51
2022/01/11 03:59:23;;;;;;;6.88;3.65;;;27.10;70.10;;;;;;5066286;28;20028;-46
2022/01/11 04:01:51;;;;;;;10.85;3.22;;;27.10;70.20;;;;;;5066368;28;20052;-48
2022/01/11 04:04:18;;;;;;;6.53;3.10;;;27.10;70.40;;;;;;5066266;28;20057;-47
2022/01/11 04:06:45;;;;;;;6.68;3.17;;;27.10;70.70;;;;;;5058018;28;20029;-42
2022/01/11 04:09:12;;;;;;;7.65;3.50;;;27.10;70.50;;;;;;5046074;28;20084;-50
2022/01/11 04:11:39;;;;;;;11.68;3.20;;;27.10;70.50;;;;;;5046285;28;20028;-46
2022/01/11 04:14:06;;;;;;;7.65;3.13;;;27.10;70.50;;;;;;5052072;28;20401;-43
2022/01/11 04:16:32;;;;;;;10.07;3.42;;;27.10;70.60;;;;;;5066165;28;20021;-50
2022/01/11 04:18:59;;;;;;;8.35;3.60;;;27.10;70.60;;;;;;5066122;28;20070;-49
2022/01/11 04:21:25;;;;;;;6.47;3.15;;;27.10;70.70;;;;;;5066097;28;20204;-50
2022/01/11 04:23:53;;;;;;;7.57;3.50;;;27.10;70.70;;;;;;5065864;28;20025;-52
2022/01/11 04:26:20;;;;;;;5.28;3.20;;;27.10;70.70;;;;;;5066049;28;20035;-47
2022/01/11 04:28:47;;;;;;;5.72;3.30;;;27.10;70.60;;;;;;5065906;28;20036;-47
2022/01/11 04:31:13;;;;;;;5.45;2.80;;;27.10;70.60;;;;;;5066042;28;20343;-50
2022/01/11 04:33:43;;;;;;;7.32;3.40;;;27.10;70.60;;;;;;5065651;28;20048;-50
2022/01/11 04:36:11;;;;;;;6.55;2.83;;;27.10;70.60;;;;;;5065875;28;20047;-48
2022/01/11 04:38:38;;;;;;;6.60;3.13;;;27.10;70.70;;;;;;5065506;28;20050;-50
2022/01/11 04:41:04;;;;;;;6.13;3.10;;;27.10;70.70;;;;;;5065842;28;20025;-45
2022/01/11 04:43:31;;;;;;;6.63;3.28;;;27.10;70.70;;;;;;5065785;28;20021;-47
2022/01/11 04:45:58;;;;;;;5.00;3.00;;;27.00;70.60;;;;;;5065656;28;20021;-48
2022/01/11 04:48:25;;;;;;;6.80;3.30;;;27.10;70.70;;;;;;5065753;28;20025;-47
2022/01/11 04:50:52;;;;;;;8.27;3.53;;;27.10;70.70;;;;;;5055245;28;20081;-45
2022/01/11 04:53:18;;;;;;;5.30;3.42;;;27.10;70.70;;;;;;5063283;28;20210;-49
2022/01/11 04:55:45;;;;;;;4.75;2.92;;;27.10;70.70;;;;;;5065516;28;20017;-52
2022/01/11 04:58:12;;;;;;;4.53;2.80;;;27.10;70.60;;;;;;5065724;28;20021;-50
2022/01/11 05:00:38;;;;;;;3.83;2.67;;;27.10;70.50;;;;;;5065504;28;20340;-45
2022/01/11 05:03:05;;;;;;;6.40;3.40;;;27.10;70.50;;;;;;5065717;28;20024;-46
2022/01/11 05:05:31;;;;;;;4.25;3.28;;;27.10;70.90;;;;;;5065292;28;20088;-49
2022/01/11 05:07:58;;;;;;;5.28;3.38;;;27.20;70.30;;;;;;5065745;28;20025;-49
2022/01/11 05:10:25;;;;;;;4.28;2.80;;;27.20;70.40;;;;;;5065006;28;20020;-42
2022/01/11 05:12:52;;;;;;;5.68;3.30;;;27.20;70.30;;;;;;5065518;28;20298;-45
2022/01/11 05:15:19;;;;;;;7.32;2.90;;;27.20;70.10;;;;;;5065020;28;20328;-44
2022/01/11 05:17:46;;;;;;;5.00;2.95;;;27.20;70.30;;;;;;5065320;28;20205;-41
2022/01/11 05:20:13;;;;;;;8.00;3.47;;;27.10;70.20;;;;;;5059264;28;20062;-46
2022/01/11 05:22:40;;;;;;;11.25;3.38;;;27.20;70.90;;;;;;5062520;28;20021;-45
2022/01/11 05:25:09;;;;;;;9.90;3.40;;;27.10;70.40;;;;;;5057585;28;20325;-44
2022/01/11 05:27:35;;;;;;;6.55;2.95;;;27.10;70.60;;;;;;5047686;28;20314;-45
2022/01/11 05:30:02;;;;;;;6.68;3.00;;;27.10;70.60;;;;;;5064686;28;20017;-54
2022/01/11 05:32:29;;;;;;;6.45;3.53;;;27.10;70.70;;;;;;5060803;28;20100;-43
2022/01/11 05:34:55;;;;;;;6.78;2.85;;;27.10;70.70;;;;;;5063951;28;20044;-46
2022/01/11 05:37:22;;;;;;;6.50;2.90;;;27.10;70.60;;;;;;5061593;28;20239;-49
2022/01/11 05:39:51;;;;;;;4.43;2.70;;;27.10;70.60;;;;;;5064295;28;20236;-44
2022/01/11 05:42:17;;;;;;;5.18;3.22;;;27.10;70.60;;;;;;5064694;28;20028;-45
2022/01/11 05:44:44;;;;;;;5.05;2.90;;;27.10;70.50;;;;;;5064365;28;20024;-54
2022/01/11 05:47:10;;;;;;;4.63;2.80;;;27.10;70.60;;;;;;5064505;28;20028;-45
2022/01/11 05:49:37;;;;;;;4.50;3.13;;;27.10;70.60;;;;;;5064280;28;20020;-53
2022/01/11 05:52:04;;;;;;;6.60;3.15;;;27.10;70.60;;;;;;5064479;28;20214;-58
2022/01/11 05:54:30;;;;;;;3.25;2.58;;;27.00;70.50;;;;;;5064139;28;20021;-42
2022/01/11 05:56:57;;;;;;;6.10;3.28;;;27.10;70.60;;;;;;5064357;28;20028;-43
2022/01/11 05:59:23;;;;;;;4.75;2.80;;;27.00;70.50;;;;;;5063583;28;20015;-49
2022/01/11 06:01:50;;;;;;;3.78;2.80;;;27.00;70.60;;;;;;5064156;28;20267;-42
2022/01/11 06:04:17;;;;;;;5.38;3.28;;;27.00;70.50;;;;;;5064021;28;20062;-54
2022/01/11 06:06:43;;;;;;;4.13;2.97;;;27.00;70.50;;;;;;5064186;28;20028;-43
2022/01/11 06:09:10;;;;;;;7.35;3.17;;;27.00;70.40;;;;;;5063249;28;20017;-46
2022/01/11 06:11:36;;;;;;;4.90;3.13;;;27.00;70.30;;;;;;5062621;28;20040;-43
2022/01/11 06:14:03;;;;;;;5.50;2.90;;;27.00;70.30;;;;;;5063818;28;20021;-47
2022/01/11 06:16:31;;;;;;;4.55;2.80;;;27.00;70.30;;;;;;5063806;28;20310;-52
2022/01/11 06:18:57;;;;;;;7.13;2.97;;;27.00;70.20;;;;;;5063747;28;20088;-45
2022/01/11 06:21:24;;;;;;;6.38;2.97;;;27.00;70.20;;;;;;5044064;28;20290;-44
2022/01/11 06:23:51;;;;;;;6.85;2.75;;;27.00;70.10;;;;;;5043778;28;20310;-51
2022/01/11 06:26:17;;;;;;;4.60;3.08;;;27.00;70.00;;;;;;5043799;28;20025;-45
2022/01/11 06:28:44;;;;;;;5.68;3.35;;;27.00;70.00;;;;;;5043831;28;20044;-46
2022/01/11 06:31:11;;;;;;;4.78;2.85;;;27.00;70.00;;;;;;5043697;28;20033;-41
2022/01/11 06:33:38;;;;;;;5.82;3.10;;;27.00;70.00;;;;;;5043451;28;20085;-50
2022/01/11 06:36:10;;;;;;;3.80;3.00;;;27.00;70.00;;;;;;5043653;28;20306;-51
2022/01/11 06:38:41;;;;;;;5.15;2.88;;;27.00;70.00;;;;;;5043532;28;20025;-47
2022/01/11 06:41:09;;;;;;;4.63;3.50;;;27.00;70.00;;;;;;5043821;28;20025;-45
2022/01/11 06:43:36;;;;;;;6.13;3.03;;;27.00;70.10;;;;;;5043689;28;20059;-45
2022/01/11 06:46:05;;;;;;;6.93;2.95;;;27.00;70.30;;;;;;5043504;28;20060;-45
2022/01/11 06:48:32;;;;;;;4.32;3.05;;;27.00;70.30;;;;;;5043582;28;20084;-44
2022/01/11 06:50:59;;;;;;;4.88;3.00;;;27.00;70.30;;;;;;5043511;28;20049;-45
2022/01/11 06:53:28;;;;;;;3.72;2.60;;;27.00;70.30;;;;;;5043427;28;20022;-48
2022/01/11 06:55:55;;;;;;;4.45;2.95;;;27.00;70.40;;;;;;5043441;28;20088;-43
2022/01/11 06:58:22;;;;;;;4.55;2.97;;;27.00;70.50;;;;;;5043796;28;20018;-50
2022/01/11 07:00:48;;;;;;;3.63;2.95;;;26.90;70.40;;;;;;5047099;28;20026;-47
2022/01/11 07:03:15;;;;;;;7.63;2.80;;;26.90;70.50;;;;;;5063227;28;20337;-47
2022/01/11 07:05:43;;;;;;;4.18;2.63;;;26.90;70.50;;;;;;5063417;28;20213;-44
2022/01/11 07:08:11;;;;;;;4.18;2.70;;;26.90;70.60;;;;;;5063798;28;20025;-40
2022/01/11 07:10:38;;;;;;;4.20;2.97;;;26.90;70.60;;;;;;5063445;28;20021;-45
2022/01/11 07:13:05;;;;;;;4.30;2.70;;;26.90;70.60;;;;;;5063783;28;20025;-54
2022/01/11 07:15:32;;;;;;;4.97;3.15;;;27.00;70.60;;;;;;5063232;28;20305;-48
2022/01/11 07:17:58;;;;;;;6.57;2.88;;;27.00;70.60;;;;;;5063767;28;20056;-47
2022/01/11 07:20:26;;;;;;;4.93;3.20;;;27.00;70.70;;;;;;5064144;28;20020;-51
2022/01/11 07:22:52;;;;;;;5.47;3.00;;;27.00;70.70;;;;;;5067374;28;20029;-42
2022/01/11 07:25:19;;;;;;;4.18;2.47;;;26.90;70.70;;;;;;5067145;28;20021;-46
2022/01/11 07:27:45;;;;;;;4.97;3.10;;;27.00;70.80;;;;;;5067380;28;20025;-53
2022/01/11 07:30:12;;;;;;;5.15;2.88;;;27.00;70.80;;;;;;5067024;28;20027;-46
2022/01/11 07:32:39;;;;;;;5.18;2.92;;;27.00;70.90;;;;;;5067128;28;20301;-50
2022/01/11 07:35:06;;;;;;;6.43;2.83;;;26.90;70.80;;;;;;5066746;28;20060;-46
2022/01/11 07:37:33;;;;;;;4.70;2.60;;;26.90;70.90;;;;;;5066985;28;20336;-51
2022/01/11 07:40:00;;;;;;;5.03;2.55;;;26.90;71.60;;;;;;5066815;28;20092;-47
2022/01/11 07:42:26;;;;;;;4.50;3.00;;;26.90;71.10;;;;;;5067107;28;20036;-51
2022/01/11 07:44:54;;;;;;;6.47;2.88;;;26.90;71.10;;;;;;5066781;28;20216;-49
2022/01/11 07:47:21;;;;;;;4.22;2.60;;;26.90;71.20;;;;;;5066825;28;20337;-48
2022/01/11 07:49:48;;;;;;;5.88;2.90;;;26.90;71.30;;;;;;5066856;28;20239;-48
2022/01/11 07:52:16;;;;;;;7.07;3.25;;;26.90;71.30;;;;;;5066658;28;20195;-47
2022/01/11 07:54:42;;;;;;;5.55;2.70;;;26.90;71.20;;;;;;5066422;28;20028;-44
2022/01/11 07:57:09;;;;;;;3.70;3.03;;;26.90;71.20;;;;;;5066656;28;20029;-49
2022/01/11 07:59:36;;;;;;;3.83;2.60;;;26.90;71.20;;;;;;5066442;28;20044;-43
2022/01/11 08:02:03;;;;;;;6.35;3.15;;;26.90;71.20;;;;;;5066526;28;20037;-53
2022/01/11 08:04:33;;;;;;;4.97;2.50;;;26.90;71.20;;;;;;5066576;28;20081;-48
2022/01/11 08:07:01;;;;;;;6.95;3.03;;;26.90;71.20;;;;;;5066425;28;20032;-46
2022/01/11 08:09:28;;;;;;;6.57;2.78;;;26.90;71.20;;;;;;5066214;28;20379;-48
2022/01/11 08:11:58;;;;;;;3.90;2.70;;;26.90;71.10;;;;;;5066318;28;20029;-49
2022/01/11 08:14:26;;;;;;;6.50;2.90;;;26.90;71.00;;;;;;5065942;28;20028;-44
2022/01/11 08:16:53;;;;;;;4.90;2.80;;;26.90;71.10;;;;;;5066182;28;20057;-46
2022/01/11 08:19:24;;;;;;;6.90;2.85;;;26.90;71.00;;;;;;5066006;28;20013;-46
2022/01/11 08:21:55;;;;;;;4.45;2.70;;;26.90;71.00;;;;;;5065980;28;20036;-47
2022/01/11 08:24:23;;;;;;;5.55;2.75;;;26.90;71.00;;;;;;5065910;28;20080;-51
2022/01/11 08:26:51;;;;;;;5.03;2.80;;;26.90;70.90;;;;;;5066072;28;20092;-53
2022/01/11 08:29:20;;;;;;;4.60;3.05;;;26.90;71.00;;;;;;5065707;28;20317;-53
2022/01/11 08:31:47;;;;;;;4.97;2.67;;;26.90;71.00;;;;;;5065470;28;20061;-44
2022/01/11 08:34:14;;;;;;;6.47;2.95;;;26.90;71.10;;;;;;5065490;28;20037;-51
2022/01/11 08:36:43;;;;;;;5.05;2.50;;;26.90;71.20;;;;;;5065854;28;20178;-48
2022/01/11 08:39:11;;;;;;;8.38;2.83;;;26.90;71.20;;;;;;5065622;28;20040;-48
2022/01/11 08:41:41;;;;;;;4.18;2.90;;;26.90;71.30;;;;;;5065916;28;20310;-43
2022/01/11 08:44:11;;;;;;;6.28;2.85;;;26.90;71.40;;;;;;5065766;28;20025;-51
2022/01/11 08:46:43;;;;;;;5.10;3.20;;;26.90;71.60;;;;;;5065674;28;20032;-56
2022/01/11 08:49:10;;;;;;;8.77;3.17;;;26.90;71.70;;;;;;5065291;28;20017;-47
2022/01/11 08:51:37;;;;;;;9.30;3.00;;;26.90;71.80;;;;;;5065518;28;20040;-44
2022/01/11 08:54:04;;;;;;;8.20;3.05;;;26.90;71.90;;;;;;5065275;28;20036;-48
2022/01/11 08:56:31;;;;;;;7.00;3.17;;;26.90;72.10;;;;;;5065331;28;20027;-47
2022/01/11 08:58:59;;;;;;;5.15;3.00;;;26.90;72.20;;;;;;5065298;28;20017;-50
2022/01/11 09:01:31;;;;;;;6.97;3.00;;;26.90;72.90;;;;;;5065142;28;20033;-57
2022/01/11 09:03:58;;;;;;;10.50;3.30;;;26.90;72.50;;;;;;5064986;28;20027;-50
2022/01/11 09:06:25;;;;;;;6.40;3.03;;;26.80;72.40;;;;;;5065178;28;20043;-51
2022/01/11 09:08:51;;;;;;;6.07;2.85;;;26.90;72.50;;;;;;5065064;28;20063;-45
2022/01/11 09:11:18;;;;;;;9.57;3.40;;;26.80;72.50;;;;;;5064986;28;20385;-53
2022/01/11 09:13:45;;;;;;;9.00;3.40;;;26.90;72.50;;;;;;5065148;28;20213;-44
2022/01/11 09:16:12;;;;;;;8.05;3.30;;;26.90;72.60;;;;;;5064865;28;20336;-47
2022/01/11 09:18:39;;;;;;;8.80;3.10;;;26.80;72.60;;;;;;5064732;28;20036;-55
2022/01/11 09:21:05;;;;;;;7.95;3.40;;;26.80;72.60;;;;;;5064850;28;20302;-47
2022/01/11 09:23:35;;;;;;;6.88;3.58;;;26.80;72.70;;;;;;5064719;28;20092;-42
2022/01/11 09:26:02;;;;;;;7.95;3.42;;;26.80;72.70;;;;;;5064442;28;20044;-47
2022/01/11 09:28:28;;;;;;;7.47;3.65;;;26.80;72.80;;;;;;5064773;28;20016;-48
2022/01/11 09:30:55;;;;;;;7.38;2.97;;;26.80;72.90;;;;;;5064552;28;20021;-45
2022/01/11 09:33:21;;;;;;;7.78;3.38;;;26.80;73.00;;;;;;5064217;28;20102;-44
2022/01/11 09:35:48;;;;;;;4.47;2.95;;;26.80;73.10;;;;;;5064535;28;20244;-49
2022/01/11 09:38:15;;;;;;;8.40;3.20;;;26.80;73.10;;;;;;5065015;28;20025;-45
2022/01/11 09:40:41;;;;;;;4.35;3.10;;;26.80;73.10;;;;;;5064352;28;20201;-44
2022/01/11 09:43:08;;;;;;;6.28;3.30;;;26.80;73.20;;;;;;5064787;28;20033;-47
2022/01/11 09:45:37;;;;;;;5.97;3.08;;;26.80;73.20;;;;;;5063754;28;20021;-52
2022/01/11 09:48:04;;;;;;;10.38;3.13;;;26.80;73.20;;;;;;5064667;28;20336;-44
2022/01/11 09:50:30;;;;;;;17.38;4.07;;;26.80;73.30;;;;;;5064364;28;20408;-52
2022/01/11 09:52:57;;;;;;;11.05;3.50;;;26.80;73.20;;;;;;5064631;28;20028;-43
2022/01/11 09:55:24;;;;;;;11.00;3.33;;;26.80;73.30;;;;;;5064086;28;20045;-43
2022/01/11 09:57:51;;;;;;;12.52;3.72;;;26.80;73.40;;;;;;5064620;28;20276;-56
2022/01/11 10:00:17;;;;;;;10.63;3.47;;;26.80;73.40;;;;;;5064444;28;20233;-49
2022/01/11 10:02:44;;;;;;;9.52;3.47;;;26.70;73.40;;;;;;5064434;28;20028;-47
2022/01/11 10:05:12;;;;;;;9.38;3.38;;;26.70;73.60;;;;;;5064031;28;20025;-43
2022/01/11 10:07:41;;;;;;;11.18;3.47;;;26.70;73.90;;;;;;5064442;28;20025;-44
2022/01/11 10:10:14;;;;;;;10.32;3.75;;;26.70;73.90;;;;;;5063936;28;20213;-50
2022/01/11 10:12:54;;;;;;;6.68;3.53;;;26.70;74.00;;;;;;5064279;28;20324;-45
2022/01/11 10:15:29;;;;;;;14.23;3.88;;;26.70;74.10;;;;;;5063908;28;20058;-41
2022/01/11 10:17:56;;;;;;;8.00;3.20;;;26.70;74.10;;;;;;5064193;28;20036;-43
2022/01/11 10:20:25;;;;;;;7.03;3.20;;;26.70;74.10;;;;;;5063860;28;20313;-45
2022/01/11 10:23:05;;;;;;;8.48;3.42;;;26.70;74.10;;;;;;5064024;28;20039;-44
2022/01/11 10:25:42;;;;;;;11.27;3.60;;;26.70;74.30;;;;;;5063716;28;20075;-48
2022/01/11 10:28:09;;;;;;;8.98;3.95;;;26.70;74.30;;;;;;5064119;28;20191;-53
2022/01/11 10:30:36;;;;;;;15.02;4.13;;;26.70;74.30;;;;;;5063718;28;20356;-44
2022/01/11 10:33:07;;;;;;;8.13;3.70;;;26.70;74.40;;;;;;5063908;28;20039;-45
2022/01/11 10:35:44;;;;;;;6.95;3.20;;;26.70;74.40;;;;;;5063567;28;20036;-54
2022/01/11 10:38:13;;;;;;;8.05;3.58;;;26.70;74.50;;;;;;5064191;28;20029;-43
2022/01/11 10:40:40;;;;;;;8.25;3.45;;;26.70;74.50;;;;;;5063654;28;20017;-52
2022/01/11 10:43:11;;;;;;;6.32;3.38;;;26.70;74.50;;;;;;5063961;28;20094;-47
2022/01/11 10:45:45;;;;;;;8.38;3.42;;;26.70;74.50;;;;;;5063574;28;20017;-59
2022/01/11 10:48:15;;;;;;;6.38;3.45;;;26.70;74.60;;;;;;5063884;28;20309;-46
2022/01/11 10:50:47;;;;;;;7.13;3.63;;;26.70;74.60;;;;;;5063454;28;20020;-48
2022/01/11 10:53:15;;;;;;;9.95;3.92;;;26.70;74.50;;;;;;5063729;28;20032;-48
2022/01/11 10:55:44;;;;;;;8.38;3.88;;;26.70;74.60;;;;;;5064827;28;20134;-45
2022/01/11 10:58:12;;;;;;;10.45;3.85;;;26.70;74.70;;;;;;5068013;28;20028;-45
2022/01/11 11:00:41;;;;;;;8.48;3.90;;;26.70;74.70;;;;;;5067314;28;20013;-46
2022/01/11 11:03:14;;;;;;;10.73;3.60;;;26.70;74.90;;;;;;5067678;28;20033;-50
2022/01/11 11:06:03;;;;;;;11.93;3.95;;;26.70;74.90;;;;;;5067168;28;20051;-53
2022/01/11 11:08:36;;;;;;;18.27;3.80;;;26.70;75.10;;;;;;5067073;28;20037;-51
2022/01/11 11:11:09;;;;;;;12.68;4.45;;;26.60;75.00;;;;;;5067241;28;20017;-54
2022/01/11 11:13:42;;;;;;;17.73;4.65;;;26.60;75.10;;;;;;5067140;28;20021;-60
2022/01/11 11:16:30;;;;;;;24.88;5.22;;;26.60;75.30;;;;;;5067157;28;20065;-50
2022/01/11 11:18:58;;;;;;;11.20;3.85;;;26.60;75.30;;;;;;5066484;28;20092;-48
2022/01/11 11:21:32;;;;;;;13.25;3.80;;;26.60;75.30;;;;;;5067142;28;20017;-51
2022/01/11 11:24:05;;;;;;;21.33;4.07;;;26.60;75.30;;;;;;5066838;28;20032;-47
2022/01/11 11:26:38;;;;;;;60.75;7.25;;;26.60;75.40;;;;;;5067588;28;20336;-48
2022/01/11 11:29:10;;;;;;;51.17;6.43;;;26.60;75.60;;;;;;5066952;28;20032;-49
2022/01/11 11:31:37;;;;;;;36.83;5.57;;;26.60;75.90;;;;;;5065655;28;20028;-52
2022/01/11 11:34:08;;;;;;;30.90;5.40;;;26.60;75.90;;;;;;5066175;28;20041;-49
2022/01/11 11:36:36;;;;;;;33.28;5.32;;;26.60;75.90;;;;;;5065846;28;20024;-52
2022/01/11 11:39:18;;;;;;;36.08;5.65;;;26.60;76.00;;;;;;5064976;28;20021;-46
2022/01/11 11:41:49;;;;;;;38.70;6.25;;;26.50;76.40;;;;;;5065100;28;20032;-47
2022/01/11 11:44:20;;;;;;;25.98;5.55;;;26.50;76.50;;;;;;5053438;28;20021;-46
2022/01/11 11:46:51;;;;;;;23.73;5.18;;;26.60;76.80;;;;;;5045127;28;20029;-47
2022/01/11 11:49:37;;;;;;;25.13;5.97;;;26.60;77.30;;;;;;5044797;28;20025;-45
2022/01/11 11:52:39;;;;;;;28.23;5.53;;;26.50;76.90;;;;;;5045538;28;20147;-46
2022/01/11 11:55:11;;;;;;;30.48;5.72;;;26.60;76.90;;;;;;5042981;28;20101;-52
2022/01/11 11:57:43;;;;;;;34.50;6.63;;;26.50;76.80;;;;;;5046643;28;20053;-49
2022/01/11 12:00:22;;;;;;;54.45;8.15;;;26.50;77.10;;;;;;5047245;28;20096;-51
2022/01/11 12:02:54;;;;;;;27.77;6.32;;;26.50;77.20;;;;;;5066633;28;20415;-51
2022/01/11 12:05:42;;;;;;;23.75;5.85;;;26.50;77.20;;;;;;5066332;28;20017;-49
2022/01/11 12:08:41;;;;;;;35.15;6.78;;;26.50;77.70;;;;;;5065025;28;20024;-48
2022/01/11 12:11:18;;;;;;;32.92;6.38;;;26.60;77.70;;;;;;5066312;28;20051;-52
2022/01/11 12:13:46;;;;;;;31.75;5.78;;;26.50;77.60;;;;;;5065969;28;20225;-50
2022/01/11 12:16:38;;;;;;;21.20;5.75;;;26.50;77.50;;;;;;5066066;28;20076;-47
2022/01/11 12:19:10;;;;;;;25.13;5.50;;;26.50;77.60;;;;;;5057071;28;20083;-49
2022/01/11 12:22:06;;;;;;;20.83;5.43;;;26.50;77.40;;;;;;5065996;28;20063;-46
2022/01/11 12:24:44;;;;;;;26.17;5.88;;;26.50;77.50;;;;;;5059088;28;20029;-51
2022/01/11 12:27:14;;;;;;;36.40;7.00;;;26.50;77.60;;;;;;5065910;28;20028;-58
2022/01/11 12:29:59;;;;;;;29.25;5.60;;;26.50;77.50;;;;;;5066133;28;20028;-54
2022/01/11 12:32:28;;;;;;;24.92;5.40;;;26.50;77.60;;;;;;5065377;28;20324;-46
2022/01/11 12:34:56;;;;;;;25.52;5.68;;;26.50;77.40;;;;;;5065558;28;20045;-47
2022/01/11 12:37:44;;;;;;;27.85;6.07;;;26.50;77.40;;;;;;5066035;28;20025;-43
2022/01/11 12:40:24;;;;;;;25.08;6.10;;;26.50;77.50;;;;;;5065653;28;20080;-49
2022/01/11 12:42:55;;;;;;;28.45;6.32;;;26.50;77.50;;;;;;5065878;28;20324;-55
2022/01/11 12:45:58;;;;;;;25.20;6.40;;;26.50;77.40;;;;;;5065589;28;20119;-51
2022/01/11 12:48:50;;;;;;;24.38;6.30;;;26.50;77.80;;;;;;5065800;28;20036;-46
2022/01/11 12:51:21;;;;;;;29.17;5.82;;;26.50;77.80;;;;;;5065373;28;20029;-52
2022/01/11 12:53:49;;;;;;;18.77;5.82;;;26.50;77.90;;;;;;5065252;28;20032;-49
2022/01/11 12:56:18;;;;;;;35.88;6.38;;;26.50;77.90;;;;;;5065350;28;20348;-48